createdAt,value
2023-01-18T00:01:42.176Z,0.99
2023-01-18T00:04:12.851Z,0.94
2023-01-18T00:06:58.473Z,0.89
2023-01-18T00:09:40.410Z,0.84
2023-01-18T00:12:13.458Z,0.80
2023-01-18T00:15:03.002Z,0.75
2023-01-18T00:17:33.621Z,0.72
2023-01-18T00:20:15.493Z,0.68
2023-01-18T00:22:48.884Z,0.65
2023-01-18T00:25:39.735Z,0.61
2023-01-18T00:28:10.409Z,0.59
2023-01-18T00:30:43.782Z,0.57
2023-01-18T00:33:25.920Z,0.55
2023-01-18T00:36:08.452Z,0.53
2023-01-18T00:38:54.010Z,0.49
2023-01-18T00:41:35.121Z,0.47
2023-01-18T00:44:06.860Z,0.47
2023-01-18T00:46:40.216Z,0.45
2023-01-18T00:49:31.161Z,0.44
2023-01-18T00:52:04.940Z,0.42
2023-01-18T00:54:55.830Z,0.40
2023-01-18T00:57:28.923Z,0.39
2023-01-18T01:00:03.289Z,0.36
2023-01-18T01:02:39.773Z,0.35
2023-01-18T01:05:42.035Z,0.32
2023-01-18T01:08:23.611Z,0.30
2023-01-18T01:11:15.399Z,0.28
2023-01-18T01:14:16.815Z,0.25
2023-01-18T01:17:06.577Z,0.23
2023-01-18T01:19:57.286Z,0.22
2023-01-18T01:22:52.947Z,0.21
2023-01-18T01:25:44.676Z,0.19
2023-01-18T01:28:18.006Z,0.18
2023-01-18T01:31:09.706Z,0.17
2023-01-18T01:33:44.074Z,0.17
2023-01-18T01:36:19.172Z,0.17
2023-01-18T01:39:00.158Z,0.17
2023-01-18T01:41:32.278Z,0.18
2023-01-18T01:44:52.112Z,0.19
2023-01-18T01:47:43.988Z,0.20
2023-01-18T01:50:26.793Z,0.21
2023-01-18T01:53:00.378Z,0.23
2023-01-18T01:55:33.710Z,0.24
2023-01-18T01:58:21.787Z,0.23
2023-01-18T02:01:02.637Z,0.22
2023-01-18T02:03:33.718Z,0.20
2023-01-18T02:06:16.379Z,0.17
2023-01-18T02:08:56.121Z,0.16
2023-01-18T02:11:36.008Z,0.15
2023-01-18T02:14:09.288Z,0.15
2023-01-18T02:16:57.447Z,0.13
2023-01-18T02:19:49.107Z,0.12
2023-01-18T02:22:57.581Z,0.10
2023-01-18T02:25:55.029Z,0.08
2023-01-18T02:28:35.751Z,0.05
2023-01-18T02:31:19.120Z,0.05
2023-01-18T02:33:59.036Z,0.04
2023-01-18T02:36:45.094Z,0.02
2023-01-18T02:39:31.548Z,-0.01
2023-01-18T02:42:42.027Z,-0.02
2023-01-18T02:45:45.216Z,-0.04
2023-01-18T02:48:37.666Z,-0.06
2023-01-18T02:51:28.185Z,-0.09
2023-01-18T02:54:24.405Z,-0.10
2023-01-18T02:57:19.265Z,-0.11
2023-01-18T03:00:17.526Z,-0.13
2023-01-18T03:02:49.510Z,-0.14
2023-01-18T03:05:43.226Z,-0.15
2023-01-18T03:08:39.877Z,-0.17
2023-01-18T03:11:40.043Z,-0.19
2023-01-18T03:14:31.877Z,-0.21
2023-01-18T03:17:20.447Z,-0.23
2023-01-18T03:20:05.427Z,-0.23
2023-01-18T03:22:57.346Z,-0.23
2023-01-18T03:25:51.418Z,-0.23
2023-01-18T03:28:44.667Z,-0.24
2023-01-18T03:31:52.140Z,-0.24
2023-01-18T03:34:32.628Z,-0.27
2023-01-18T03:37:28.362Z,-0.29
2023-01-18T03:40:03.554Z,-0.30
2023-01-18T03:43:00.912Z,-0.30
2023-01-18T03:45:38.428Z,-0.30
2023-01-18T03:48:10.585Z,-0.30
2023-01-18T03:51:01.330Z,-0.30
2023-01-18T03:53:59.230Z,-0.31
2023-01-18T03:56:49.693Z,-0.31
2023-01-18T03:59:23.711Z,-0.31
2023-01-18T04:02:03.245Z,-0.31
2023-01-18T04:04:36.727Z,-0.30
2023-01-18T04:07:27.941Z,-0.30
2023-01-18T04:09:58.434Z,-0.29
2023-01-18T04:12:49.212Z,-0.28
2023-01-18T04:15:32.445Z,-0.26
2023-01-18T04:18:17.454Z,-0.24
2023-01-18T04:20:56.285Z,-0.23
2023-01-18T04:23:29.714Z,-0.23
2023-01-18T04:26:15.425Z,-0.20
2023-01-18T04:28:48.841Z,-0.19
2023-01-18T04:31:39.705Z,-0.19
2023-01-18T04:34:17.796Z,-0.17
2023-01-18T04:37:08.544Z,-0.16
2023-01-18T04:39:50.133Z,-0.15
2023-01-18T04:42:30.883Z,-0.14
2023-01-18T04:45:21.569Z,-0.12
2023-01-18T04:48:12.212Z,-0.10
2023-01-18T04:51:02.980Z,-0.09
2023-01-18T04:53:53.033Z,-0.08
2023-01-18T04:56:26.568Z,-0.07
2023-01-18T04:59:14.424Z,-0.07
2023-01-18T05:01:58.893Z,-0.05
2023-01-18T05:04:31.807Z,-0.05
2023-01-18T05:07:09.926Z,-0.04
2023-01-18T05:09:52.562Z,-0.05
2023-01-18T05:12:31.911Z,-0.06
2023-01-18T05:15:15.331Z,-0.07
2023-01-18T05:18:07.140Z,-0.08
2023-01-18T05:20:40.316Z,-0.10
2023-01-18T05:23:31.021Z,-0.12
2023-01-18T05:26:24.551Z,-0.13
2023-01-18T05:29:15.398Z,-0.15
2023-01-18T05:32:07.307Z,-0.18
2023-01-18T05:34:58.161Z,-0.20
2023-01-18T05:37:47.775Z,-0.22
2023-01-18T05:40:38.511Z,-0.23
2023-01-18T05:43:30.840Z,-0.25
2023-01-18T05:46:21.566Z,-0.28
2023-01-18T05:49:02.325Z,-0.30
2023-01-18T05:51:33.044Z,-0.32
2023-01-18T05:54:23.747Z,-0.35
2023-01-18T05:57:14.423Z,-0.40
2023-01-18T06:00:06.279Z,-0.42
2023-01-18T06:02:57.150Z,-0.46
2023-01-18T06:05:48.950Z,-0.46
2023-01-18T06:08:39.701Z,-0.48
2023-01-18T06:11:19.036Z,-0.51
2023-01-18T06:14:02.315Z,-0.54
2023-01-18T06:16:41.897Z,-0.57
2023-01-18T06:19:32.697Z,-0.60
2023-01-18T06:22:23.962Z,-0.63
2023-01-18T06:25:14.806Z,-0.66
2023-01-18T06:28:05.024Z,-0.68
2023-01-18T06:30:48.687Z,-0.70
2023-01-18T06:33:33.076Z,-0.73
2023-01-18T06:36:18.194Z,-0.74
2023-01-18T06:38:53.030Z,-0.75
2023-01-18T06:41:43.795Z,-0.74
2023-01-18T06:44:34.380Z,-0.75
2023-01-18T06:47:19.962Z,-0.76
2023-01-18T06:50:12.622Z,-0.75
2023-01-18T06:53:03.319Z,-0.74
2023-01-18T06:55:34.759Z,-0.74
2023-01-18T06:58:25.858Z,-0.74
2023-01-18T07:01:16.582Z,-0.74
2023-01-18T07:04:06.982Z,-0.74
2023-01-18T07:06:50.467Z,-0.74
2023-01-18T07:09:40.042Z,-0.74
2023-01-18T07:12:18.074Z,-0.75
2023-01-18T07:15:21.233Z,-0.76
2023-01-18T07:18:12.045Z,-0.77
2023-01-18T07:20:48.500Z,-0.77
2023-01-18T07:23:41.045Z,-0.77
2023-01-18T07:26:32.400Z,-0.77
2023-01-18T07:29:21.748Z,-0.77
2023-01-18T07:32:12.541Z,-0.77
2023-01-18T07:34:45.506Z,-0.76
2023-01-18T07:37:38.593Z,-0.75
2023-01-18T07:40:23.256Z,-0.73
2023-01-18T07:43:08.163Z,-0.72
2023-01-18T07:45:55.241Z,-0.70
2023-01-18T07:48:46.305Z,-0.69
2023-01-18T07:51:37.004Z,-0.65
2023-01-18T07:54:07.690Z,-0.62
2023-01-18T07:56:59.719Z,-0.59
2023-01-18T07:59:40.396Z,-0.57
2023-01-18T08:02:22.470Z,-0.54
2023-01-18T08:04:53.053Z,-0.50
2023-01-18T08:07:34.791Z,-0.46
2023-01-18T08:10:15.795Z,-0.43
2023-01-18T08:13:09.310Z,-0.38
2023-01-18T08:16:03.499Z,-0.33
2023-01-18T08:18:49.629Z,-0.32
2023-01-18T08:21:23.400Z,-0.28
2023-01-18T08:24:13.823Z,-0.26
2023-01-18T08:26:44.678Z,-0.23
2023-01-18T08:29:34.611Z,-0.21
2023-01-18T08:32:15.965Z,-0.21
2023-01-18T08:35:00.527Z,-0.18
2023-01-18T08:37:51.745Z,-0.16
2023-01-18T08:40:43.578Z,-0.14
2023-01-18T08:43:34.830Z,-0.13
2023-01-18T08:46:16.726Z,-0.11
2023-01-18T08:49:07.742Z,-0.10
2023-01-18T08:51:58.409Z,-0.08
2023-01-18T08:54:28.979Z,-0.04
2023-01-18T08:57:19.717Z,0.01
2023-01-18T09:00:04.351Z,0.05
2023-01-18T09:02:50.945Z,0.07
2023-01-18T09:05:21.860Z,0.09
2023-01-18T09:08:02.769Z,0.11
2023-01-18T09:10:53.552Z,0.14
2023-01-18T09:13:34.884Z,0.15
2023-01-18T09:16:24.462Z,0.17
2023-01-18T09:18:56.237Z,0.18
2023-01-18T09:21:30.345Z,0.20
2023-01-18T09:24:06.246Z,0.22
2023-01-18T09:26:56.970Z,0.24
2023-01-18T09:29:52.346Z,0.27
2023-01-18T09:32:33.267Z,0.30
2023-01-18T09:35:03.997Z,0.34
2023-01-18T09:37:37.702Z,0.37
2023-01-18T09:40:15.099Z,0.40
2023-01-18T09:42:51.552Z,0.43
2023-01-18T09:45:44.564Z,0.47
2023-01-18T09:48:29.164Z,0.49
2023-01-18T09:51:24.872Z,0.52
2023-01-18T09:54:15.826Z,0.57
2023-01-18T09:57:18.228Z,0.62
2023-01-18T09:59:55.632Z,0.70
2023-01-18T10:02:48.330Z,0.77
2023-01-18T10:05:24.143Z,0.85
2023-01-18T10:08:04.893Z,0.92
2023-01-18T10:10:41.667Z,1.03
2023-01-18T10:13:40.929Z,1.17
2023-01-18T10:16:34.563Z,1.26
2023-01-18T10:19:29.697Z,1.27
2023-01-18T10:22:22.385Z,1.29
2023-01-18T10:24:59.881Z,1.35
2023-01-18T10:28:03.595Z,1.45
2023-01-18T10:30:57.461Z,1.51
2023-01-18T10:33:41.072Z,1.57
2023-01-18T10:36:38.523Z,1.61
2023-01-18T10:39:30.379Z,1.64
2023-01-18T10:42:06.855Z,1.65
2023-01-18T10:44:37.873Z,1.70
2023-01-18T10:47:28.832Z,1.75
2023-01-18T10:50:22.637Z,1.89
2023-01-18T10:58:46.616Z,2.07
2023-01-18T11:00:01.942Z,2.09
2023-01-18T11:02:43.864Z,2.17
2023-01-18T11:05:25.243Z,2.19
2023-01-18T11:08:13.277Z,2.17
2023-01-18T11:10:46.381Z,2.14
2023-01-18T11:13:28.598Z,2.09
2023-01-18T11:16:13.940Z,2.04
2023-01-18T11:19:00.451Z,2.01
2023-01-18T11:21:45.939Z,1.98
2023-01-18T11:24:29.041Z,1.97
2023-01-18T11:27:13.683Z,1.96
2023-01-18T11:29:54.594Z,1.96
2023-01-18T11:32:27.864Z,2.00
2023-01-18T11:35:00.882Z,2.02
2023-01-18T11:37:35.629Z,2.06
2023-01-18T11:40:30.739Z,2.07
2023-01-18T11:43:04.871Z,2.11
2023-01-18T11:45:53.965Z,2.14
2023-01-18T11:48:28.606Z,2.18
2023-01-18T11:51:08.402Z,2.23
2023-01-18T11:53:54.504Z,2.28
2023-01-18T11:56:33.249Z,2.35
2023-01-18T11:59:13.985Z,2.42
2023-01-18T12:02:04.084Z,2.47
2023-01-18T12:04:48.584Z,2.52
2023-01-18T12:07:49.003Z,2.54
2023-01-18T12:10:24.595Z,2.54
2023-01-18T12:13:07.848Z,2.53
2023-01-18T12:15:58.507Z,2.49
2023-01-18T12:18:47.721Z,2.43
2023-01-18T12:21:27.083Z,2.41
2023-01-18T12:24:20.439Z,2.44
2023-01-18T12:26:57.853Z,2.48
2023-01-18T12:29:51.756Z,2.50
2023-01-18T12:32:51.995Z,2.52
2023-01-18T12:35:37.159Z,2.61
2023-01-18T12:38:23.180Z,2.72
2023-01-18T12:41:23.737Z,2.80
2023-01-18T12:44:29.992Z,2.90
2023-01-18T12:47:12.141Z,3.05
2023-01-18T12:49:50.860Z,3.22
2023-01-18T12:52:23.697Z,3.42
2023-01-18T12:54:58.634Z,3.66
2023-01-18T12:57:31.828Z,3.89
2023-01-18T13:00:24.463Z,4.12
2023-01-18T13:02:58.741Z,4.32
2023-01-18T13:05:37.144Z,4.43
2023-01-18T13:08:11.989Z,4.56
2023-01-18T13:10:46.349Z,4.72
2023-01-18T13:13:24.813Z,4.88
2023-01-18T13:16:03.249Z,5.01
2023-01-18T13:18:42.957Z,5.16
2023-01-18T13:21:25.165Z,5.17
2023-01-18T13:24:05.727Z,5.00
2023-01-18T13:26:37.781Z,4.73
2023-01-18T13:29:24.100Z,4.50
2023-01-18T13:31:55.298Z,4.26
2023-01-18T13:34:33.401Z,4.08
2023-01-18T13:37:14.977Z,3.95
2023-01-18T13:39:57.380Z,3.88
2023-01-18T13:42:38.293Z,3.86
2023-01-18T13:45:25.074Z,3.83
2023-01-18T13:48:01.910Z,3.77
2023-01-18T13:50:52.782Z,3.71
2023-01-18T13:53:53.227Z,3.67
2023-01-18T13:56:29.192Z,3.65
2023-01-18T13:59:04.931Z,3.64
2023-01-18T14:02:10.347Z,3.57
2023-01-18T14:05:08.963Z,3.50
2023-01-18T14:07:53.252Z,3.41
2023-01-18T14:10:36.999Z,3.33
2023-01-18T14:13:18.462Z,3.28
2023-01-18T14:16:00.377Z,3.31
2023-01-18T14:18:33.426Z,3.32
2023-01-18T14:21:30.635Z,3.36
2023-01-18T14:24:30.514Z,3.46
2023-01-18T14:27:05.564Z,3.49
2023-01-18T14:29:43.778Z,3.46
2023-01-18T14:32:21.599Z,3.46
2023-01-18T14:35:20.639Z,3.40
2023-01-18T14:38:19.172Z,3.32
2023-01-18T14:40:52.759Z,3.22
2023-01-18T14:43:29.766Z,3.14
2023-01-18T14:46:05.731Z,3.08
2023-01-18T14:48:58.188Z,3.03
2023-01-18T14:51:40.786Z,2.98
2023-01-18T14:54:29.424Z,2.90
2023-01-18T14:57:16.287Z,2.84
2023-01-18T14:59:55.940Z,2.77
2023-01-18T15:02:47.460Z,2.68
2023-01-18T15:05:38.333Z,2.58
2023-01-18T15:08:14.804Z,2.46
2023-01-18T15:10:53.972Z,2.36
2023-01-18T15:13:50.326Z,2.25
2023-01-18T15:16:41.987Z,2.16
2023-01-18T15:19:32.743Z,2.09
2023-01-18T15:22:16.106Z,2.02
2023-01-18T15:25:17.991Z,1.94
2023-01-18T15:27:52.959Z,1.87
2023-01-18T15:30:49.202Z,1.80
2023-01-18T15:33:40.547Z,1.72
2023-01-18T15:36:12.579Z,1.66
2023-01-18T15:38:53.265Z,1.60
2023-01-18T15:41:30.459Z,1.52
2023-01-18T15:44:20.040Z,1.45
2023-01-18T15:47:23.624Z,1.36
2023-01-18T15:50:06.622Z,1.28
2023-01-18T15:53:11.592Z,1.21
2023-01-18T15:55:55.703Z,1.11
2023-01-18T15:58:49.982Z,1.00
2023-01-18T16:01:35.161Z,0.90
2023-01-18T16:04:24.319Z,0.81
2023-01-18T16:07:35.771Z,0.70
2023-01-18T16:10:31.511Z,0.58
2023-01-18T16:13:36.923Z,0.46
2023-01-18T16:16:28.499Z,0.34
2023-01-18T16:19:20.929Z,0.22
2023-01-18T16:22:04.521Z,0.11
2023-01-18T16:24:50.862Z,0.00
2023-01-18T16:27:52.442Z,-0.10
2023-01-18T16:30:34.254Z,-0.21
2023-01-18T16:33:13.652Z,-0.30
2023-01-18T16:36:24.219Z,-0.41
2023-01-18T16:39:15.258Z,-0.50
2023-01-18T16:42:06.492Z,-0.60
2023-01-18T16:44:57.423Z,-0.70
2023-01-18T16:47:48.270Z,-0.77
2023-01-18T16:50:20.137Z,-0.84
2023-01-18T16:53:11.736Z,-0.93
2023-01-18T16:56:02.639Z,-1.01
2023-01-18T16:58:38.384Z,-1.08
2023-01-18T17:01:30.905Z,-1.15
2023-01-18T17:04:12.790Z,-1.21
2023-01-18T17:07:04.124Z,-1.27
2023-01-18T17:09:54.763Z,-1.33
2023-01-18T17:12:45.538Z,-1.39
2023-01-18T17:15:30.806Z,-1.45
2023-01-18T17:18:18.119Z,-1.51
2023-01-18T17:21:11.378Z,-1.54
2023-01-18T17:23:55.239Z,-1.59
2023-01-18T17:26:46.048Z,-1.62
2023-01-18T17:29:36.820Z,-1.65
2023-01-18T17:32:18.777Z,-1.69
2023-01-18T17:35:11.841Z,-1.73
2023-01-18T17:38:23.224Z,-1.77
2023-01-18T17:41:39.648Z,-1.82
2023-01-18T17:44:24.210Z,-1.86
2023-01-18T17:47:17.926Z,-1.88
2023-01-18T17:49:59.882Z,-1.89
2023-01-18T17:52:50.747Z,-1.91
2023-01-18T17:55:35.040Z,-1.94
2023-01-18T17:58:26.236Z,-1.94
2023-01-18T18:01:12.682Z,-1.96
2023-01-18T18:04:03.643Z,-1.99
2023-01-18T18:06:58.449Z,-2.01
2023-01-18T18:09:40.881Z,-2.04
2023-01-18T18:12:33.650Z,-2.06
2023-01-18T18:15:17.259Z,-2.07
2023-01-18T18:17:51.139Z,-2.10
2023-01-18T18:20:41.880Z,-2.11
2023-01-18T18:23:33.127Z,-2.15
2023-01-18T18:26:23.824Z,-2.16
2023-01-18T18:29:14.803Z,-2.19
2023-01-18T18:32:07.044Z,-2.21
2023-01-18T18:34:57.910Z,-2.23
2023-01-18T18:37:48.761Z,-2.24
2023-01-18T18:40:32.359Z,-2.26
2023-01-18T18:43:12.029Z,-2.27
2023-01-18T18:45:53.121Z,-2.25
2023-01-18T18:48:43.952Z,-2.25
2023-01-18T18:51:25.141Z,-2.25
2023-01-18T18:54:15.995Z,-2.26
2023-01-18T18:56:56.782Z,-2.28
2023-01-18T18:59:47.716Z,-2.30
2023-01-18T19:02:31.129Z,-2.32
2023-01-18T19:05:12.208Z,-2.34
2023-01-18T19:07:47.111Z,-2.37
2023-01-18T19:10:39.346Z,-2.39
2023-01-18T19:13:30.253Z,-2.39
2023-01-18T19:16:14.324Z,-2.41
2023-01-18T19:19:02.545Z,-2.42
2023-01-18T19:21:51.923Z,-2.43
2023-01-18T19:24:36.879Z,-2.45
2023-01-18T19:27:18.694Z,-2.45
2023-01-18T19:30:12.932Z,-2.46
2023-01-18T19:33:04.306Z,-2.46
2023-01-18T19:35:55.638Z,-2.46
2023-01-18T19:38:28.544Z,-2.47
2023-01-18T19:41:19.737Z,-2.49
2023-01-18T19:44:04.900Z,-2.49
2023-01-18T19:46:42.903Z,-2.50
2023-01-18T19:49:25.860Z,-2.52
2023-01-18T19:52:16.927Z,-2.53
2023-01-18T19:54:47.551Z,-2.56
2023-01-18T19:57:38.425Z,-2.58
2023-01-18T20:00:29.995Z,-2.62
2023-01-18T20:03:04.030Z,-2.64
2023-01-18T20:05:55.698Z,-2.65
2023-01-18T20:08:35.319Z,-2.68
2023-01-18T20:11:26.154Z,-2.70
2023-01-18T20:14:08.279Z,-2.71
2023-01-18T20:16:59.350Z,-2.73
2023-01-18T20:19:40.991Z,-2.74
2023-01-18T20:22:23.522Z,-2.75
2023-01-18T20:24:54.420Z,-2.76
2023-01-18T20:27:27.414Z,-2.78
2023-01-18T20:30:18.507Z,-2.80
2023-01-18T20:33:09.256Z,-2.81
2023-01-18T20:36:01.854Z,-2.83
2023-01-18T20:38:52.657Z,-2.85
2023-01-18T20:41:36.230Z,-2.86
2023-01-18T20:44:27.439Z,-2.88
2023-01-18T20:47:20.734Z,-2.89
2023-01-18T20:49:54.320Z,-2.89
2023-01-18T20:52:45.278Z,-2.88
2023-01-18T20:55:38.103Z,-2.87
2023-01-18T20:58:29.422Z,-2.86
2023-01-18T21:01:19.347Z,-2.86
2023-01-18T21:04:01.300Z,-2.87
2023-01-18T21:06:51.992Z,-2.90
2023-01-18T21:09:42.911Z,-2.94
2023-01-18T21:12:24.461Z,-2.97
2023-01-18T21:15:15.650Z,-3.00
2023-01-18T21:18:07.650Z,-3.03
2023-01-18T21:21:00.755Z,-2.79
2023-01-18T21:23:42.284Z,-2.41
2023-01-18T21:26:21.469Z,-2.30
2023-01-18T21:29:03.748Z,-2.27
2023-01-18T21:31:54.836Z,-2.34
2023-01-18T21:34:36.565Z,-2.45
2023-01-18T21:37:18.319Z,-2.57
2023-01-18T21:40:12.889Z,-2.66
2023-01-18T21:43:21.162Z,-2.71
2023-01-18T21:46:13.209Z,-2.74
2023-01-18T21:48:43.861Z,-2.76
2023-01-18T21:51:42.265Z,-2.77
2023-01-18T21:54:33.337Z,-2.73
2023-01-18T21:57:19.540Z,-2.71
2023-01-18T22:00:12.609Z,-2.73
2023-01-18T22:02:54.735Z,-2.72
2023-01-18T22:05:45.610Z,-2.72
2023-01-18T22:08:36.666Z,-2.75
2023-01-18T22:11:27.978Z,-2.78
2023-01-18T22:14:18.099Z,-2.82
2023-01-18T22:17:09.020Z,-2.85
2023-01-18T22:20:00.170Z,-2.92
2023-01-18T22:22:51.255Z,-2.98
2023-01-18T22:25:41.974Z,-3.04
2023-01-18T22:28:24.068Z,-3.07
2023-01-18T22:31:15.326Z,-3.11
2023-01-18T22:34:06.044Z,-3.12
2023-01-18T22:36:57.033Z,-3.12
2023-01-18T22:39:38.992Z,-3.10
2023-01-18T22:42:30.296Z,-3.01
2023-01-18T22:45:21.062Z,-2.94
2023-01-18T22:48:11.911Z,-2.91
2023-01-18T22:51:03.909Z,-2.90
2023-01-18T22:53:56.296Z,-2.90
2023-01-18T22:56:47.127Z,-2.87
2023-01-18T22:59:28.867Z,-2.87
2023-01-18T23:02:10.751Z,-2.89
2023-01-18T23:05:01.485Z,-2.92
2023-01-18T23:07:52.337Z,-2.94
2023-01-18T23:10:33.764Z,-2.97
2023-01-18T23:13:15.584Z,-2.99
2023-01-18T23:16:28.500Z,-3.01
2023-01-18T23:19:20.089Z,-3.03
2023-01-18T23:22:09.269Z,-3.03
2023-01-18T23:25:00.098Z,-3.03
2023-01-18T23:27:33.752Z,-3.05
2023-01-18T23:30:14.846Z,-3.07
2023-01-18T23:32:55.516Z,-3.10
2023-01-18T23:35:46.213Z,-3.15
2023-01-18T23:38:55.696Z,-3.19
2023-01-18T23:42:03.865Z,-3.21
2023-01-18T23:45:12.131Z,-3.25
2023-01-18T23:48:27.305Z,-3.29
2023-01-18T23:51:35.832Z,-3.32
2023-01-18T23:54:26.619Z,-3.33
2023-01-18T23:57:17.979Z,-3.31
